sensor_id;sensor_type;location;lat;lon;timestamp;P1;durP1;ratioP1;P2;durP2;ratioP2
63434;SDS011;68814;50.872;5.306;2023-06-05T00:01:37;6.65;;;2.67;;
63434;SDS011;68814;50.872;5.306;2023-06-05T00:04:03;9.10;;;1.88;;
63434;SDS011;68814;50.872;5.306;2023-06-05T00:06:30;9.13;;;2.47;;
63434;SDS011;68814;50.872;5.306;2023-06-05T00:08:56;5.57;;;2.30;;
63434;SDS011;68814;50.872;5.306;2023-06-05T00:11:23;6.00;;;2.45;;
63434;SDS011;68814;50.872;5.306;2023-06-05T00:13:48;6.60;;;2.10;;
63434;SDS011;68814;50.872;5.306;2023-06-05T00:16:15;5.50;;;1.90;;
63434;SDS011;68814;50.872;5.306;2023-06-05T00:18:41;7.57;;;2.25;;
63434;SDS011;68814;50.872;5.306;2023-06-05T00:21:10;6.32;;;1.92;;
63434;SDS011;68814;50.872;5.306;2023-06-05T00:23:40;5.72;;;2.28;;
63434;SDS011;68814;50.872;5.306;2023-06-05T00:26:06;4.68;;;2.30;;
63434;SDS011;68814;50.872;5.306;2023-06-05T00:28:31;4.07;;;1.98;;
63434;SDS011;68814;50.872;5.306;2023-06-05T00:30:58;7.45;;;2.33;;
63434;SDS011;68814;50.872;5.306;2023-06-05T00:33:25;9.95;;;2.42;;
63434;SDS011;68814;50.872;5.306;2023-06-05T00:35:51;5.38;;;2.78;;
63434;SDS011;68814;50.872;5.306;2023-06-05T00:38:17;5.97;;;2.58;;
63434;SDS011;68814;50.872;5.306;2023-06-05T00:40:43;9.52;;;2.50;;
63434;SDS011;68814;50.872;5.306;2023-06-05T00:43:09;14.68;;;2.70;;
63434;SDS011;68814;50.872;5.306;2023-06-05T00:45:34;4.47;;;2.03;;
63434;SDS011;68814;50.872;5.306;2023-06-05T00:48:00;6.55;;;2.65;;
63434;SDS011;68814;50.872;5.306;2023-06-05T00:50:26;6.43;;;3.10;;
63434;SDS011;68814;50.872;5.306;2023-06-05T00:52:51;6.20;;;2.75;;
63434;SDS011;68814;50.872;5.306;2023-06-05T00:55:18;7.80;;;2.80;;
63434;SDS011;68814;50.872;5.306;2023-06-05T00:57:45;6.95;;;2.97;;
63434;SDS011;68814;50.872;5.306;2023-06-05T01:00:11;3.42;;;2.10;;
63434;SDS011;68814;50.872;5.306;2023-06-05T01:02:39;7.03;;;2.80;;
63434;SDS011;68814;50.872;5.306;2023-06-05T01:05:06;5.68;;;2.83;;
63434;SDS011;68814;50.872;5.306;2023-06-05T01:07:33;7.05;;;2.45;;
63434;SDS011;68814;50.872;5.306;2023-06-05T01:10:05;5.50;;;2.60;;
63434;SDS011;68814;50.872;5.306;2023-06-05T01:12:38;7.50;;;3.13;;
63434;SDS011;68814;50.872;5.306;2023-06-05T01:15:07;8.60;;;2.63;;
63434;SDS011;68814;50.872;5.306;2023-06-05T01:17:34;4.28;;;2.58;;
63434;SDS011;68814;50.872;5.306;2023-06-05T01:20:00;8.10;;;2.75;;
63434;SDS011;68814;50.872;5.306;2023-06-05T01:22:35;10.10;;;2.95;;
63434;SDS011;68814;50.872;5.306;2023-06-05T01:25:03;5.18;;;2.95;;
63434;SDS011;68814;50.872;5.306;2023-06-05T01:33:29;5.43;;;2.63;;
63434;SDS011;68814;50.872;5.306;2023-06-05T01:35:55;5.07;;;2.90;;
63434;SDS011;68814;50.872;5.306;2023-06-05T01:38:29;8.50;;;2.63;;
63434;SDS011;68814;50.872;5.306;2023-06-05T01:40:59;7.78;;;2.85;;
63434;SDS011;68814;50.872;5.306;2023-06-05T01:43:26;10.90;;;3.28;;
63434;SDS011;68814;50.872;5.306;2023-06-05T01:45:52;6.70;;;2.85;;
63434;SDS011;68814;50.872;5.306;2023-06-05T01:48:21;8.23;;;3.38;;
63434;SDS011;68814;50.872;5.306;2023-06-05T01:50:54;6.93;;;2.90;;
63434;SDS011;68814;50.872;5.306;2023-06-05T01:53:21;8.85;;;3.17;;
63434;SDS011;68814;50.872;5.306;2023-06-05T01:55:46;4.55;;;2.70;;
63434;SDS011;68814;50.872;5.306;2023-06-05T01:58:13;8.38;;;3.25;;
63434;SDS011;68814;50.872;5.306;2023-06-05T02:00:40;4.95;;;2.70;;
63434;SDS011;68814;50.872;5.306;2023-06-05T02:03:07;6.60;;;3.22;;
63434;SDS011;68814;50.872;5.306;2023-06-05T02:05:32;8.48;;;2.90;;
63434;SDS011;68814;50.872;5.306;2023-06-05T02:07:58;13.13;;;3.97;;
63434;SDS011;68814;50.872;5.306;2023-06-05T02:10:30;5.05;;;2.30;;
63434;SDS011;68814;50.872;5.306;2023-06-05T02:12:56;9.65;;;3.40;;
63434;SDS011;68814;50.872;5.306;2023-06-05T02:15:22;8.15;;;3.60;;
63434;SDS011;68814;50.872;5.306;2023-06-05T02:17:48;6.18;;;3.08;;
63434;SDS011;68814;50.872;5.306;2023-06-05T02:20:19;5.07;;;2.97;;
63434;SDS011;68814;50.872;5.306;2023-06-05T02:22:50;5.53;;;2.65;;
63434;SDS011;68814;50.872;5.306;2023-06-05T02:25:17;5.90;;;2.53;;
63434;SDS011;68814;50.872;5.306;2023-06-05T02:27:46;4.68;;;2.70;;
63434;SDS011;68814;50.872;5.306;2023-06-05T02:30:12;7.78;;;3.00;;
63434;SDS011;68814;50.872;5.306;2023-06-05T02:32:38;12.52;;;3.47;;
63434;SDS011;68814;50.872;5.306;2023-06-05T02:35:09;7.18;;;3.47;;
63434;SDS011;68814;50.872;5.306;2023-06-05T02:37:35;6.43;;;3.03;;
63434;SDS011;68814;50.872;5.306;2023-06-05T02:40:08;7.82;;;3.42;;
63434;SDS011;68814;50.872;5.306;2023-06-05T02:42:38;6.93;;;3.17;;
63434;SDS011;68814;50.872;5.306;2023-06-05T02:45:04;6.95;;;3.65;;
63434;SDS011;68814;50.872;5.306;2023-06-05T02:47:30;7.63;;;3.45;;
63434;SDS011;68814;50.872;5.306;2023-06-05T02:49:57;8.25;;;3.50;;
63434;SDS011;68814;50.872;5.306;2023-06-05T02:52:22;7.80;;;3.38;;
63434;SDS011;68814;50.872;5.306;2023-06-05T02:54:49;9.73;;;4.07;;
63434;SDS011;68814;50.872;5.306;2023-06-05T02:57:15;7.38;;;3.90;;
63434;SDS011;68814;50.872;5.306;2023-06-05T02:59:42;9.15;;;3.95;;
63434;SDS011;68814;50.872;5.306;2023-06-05T03:02:10;9.38;;;3.55;;
63434;SDS011;68814;50.872;5.306;2023-06-05T03:04:36;6.82;;;3.90;;
63434;SDS011;68814;50.872;5.306;2023-06-05T03:07:05;10.10;;;3.72;;
63434;SDS011;68814;50.872;5.306;2023-06-05T03:09:32;7.97;;;4.47;;
63434;SDS011;68814;50.872;5.306;2023-06-05T03:11:58;10.27;;;3.92;;
63434;SDS011;68814;50.872;5.306;2023-06-05T03:14:24;12.10;;;3.90;;
63434;SDS011;68814;50.872;5.306;2023-06-05T03:16:51;6.85;;;3.90;;
63434;SDS011;68814;50.872;5.306;2023-06-05T03:19:18;8.25;;;4.05;;
63434;SDS011;68814;50.872;5.306;2023-06-05T03:21:44;8.10;;;3.35;;
63434;SDS011;68814;50.872;5.306;2023-06-05T03:24:11;8.45;;;3.90;;
63434;SDS011;68814;50.872;5.306;2023-06-05T03:26:40;6.82;;;4.20;;
63434;SDS011;68814;50.872;5.306;2023-06-05T03:29:07;9.85;;;4.53;;
63434;SDS011;68814;50.872;5.306;2023-06-05T03:31:33;8.35;;;4.22;;
63434;SDS011;68814;50.872;5.306;2023-06-05T03:34:00;11.07;;;4.32;;
63434;SDS011;68814;50.872;5.306;2023-06-05T03:36:27;8.55;;;3.95;;
63434;SDS011;68814;50.872;5.306;2023-06-05T03:38:54;10.35;;;4.57;;
63434;SDS011;68814;50.872;5.306;2023-06-05T03:41:20;5.93;;;3.95;;
63434;SDS011;68814;50.872;5.306;2023-06-05T03:43:46;10.82;;;3.72;;
63434;SDS011;68814;50.872;5.306;2023-06-05T03:46:14;13.30;;;4.78;;
63434;SDS011;68814;50.872;5.306;2023-06-05T03:48:44;8.60;;;4.00;;
63434;SDS011;68814;50.872;5.306;2023-06-05T03:51:10;8.25;;;4.45;;
63434;SDS011;68814;50.872;5.306;2023-06-05T03:53:36;10.30;;;4.70;;
63434;SDS011;68814;50.872;5.306;2023-06-05T03:56:07;9.52;;;4.88;;
63434;SDS011;68814;50.872;5.306;2023-06-05T03:58:33;7.25;;;4.90;;
63434;SDS011;68814;50.872;5.306;2023-06-05T04:00:59;8.45;;;4.47;;
63434;SDS011;68814;50.872;5.306;2023-06-05T04:03:25;10.43;;;4.90;;
63434;SDS011;68814;50.872;5.306;2023-06-05T04:05:52;5.82;;;3.83;;
63434;SDS011;68814;50.872;5.306;2023-06-05T04:08:18;9.02;;;4.63;;
63434;SDS011;68814;50.872;5.306;2023-06-05T04:10:43;8.13;;;5.13;;
63434;SDS011;68814;50.872;5.306;2023-06-05T04:13:09;11.93;;;5.55;;
63434;SDS011;68814;50.872;5.306;2023-06-05T04:15:35;6.30;;;4.60;;
63434;SDS011;68814;50.872;5.306;2023-06-05T04:18:01;9.80;;;4.60;;
63434;SDS011;68814;50.872;5.306;2023-06-05T04:20:27;7.07;;;4.75;;
63434;SDS011;68814;50.872;5.306;2023-06-05T04:22:53;12.30;;;5.40;;
63434;SDS011;68814;50.872;5.306;2023-06-05T04:25:19;10.07;;;5.35;;
63434;SDS011;68814;50.872;5.306;2023-06-05T04:27:45;11.85;;;5.13;;
63434;SDS011;68814;50.872;5.306;2023-06-05T04:30:13;7.63;;;4.97;;
63434;SDS011;68814;50.872;5.306;2023-06-05T04:32:39;10.95;;;5.32;;
63434;SDS011;68814;50.872;5.306;2023-06-05T04:35:06;10.63;;;4.70;;
63434;SDS011;68814;50.872;5.306;2023-06-05T04:37:35;10.32;;;5.00;;
63434;SDS011;68814;50.872;5.306;2023-06-05T04:40:03;10.07;;;5.72;;
63434;SDS011;68814;50.872;5.306;2023-06-05T04:42:34;10.27;;;5.57;;
63434;SDS011;68814;50.872;5.306;2023-06-05T04:45:02;9.68;;;5.50;;
63434;SDS011;68814;50.872;5.306;2023-06-05T04:47:29;9.25;;;6.00;;
63434;SDS011;68814;50.872;5.306;2023-06-05T04:49:59;16.23;;;6.10;;
63434;SDS011;68814;50.872;5.306;2023-06-05T04:52:28;10.23;;;5.97;;
63434;SDS011;68814;50.872;5.306;2023-06-05T04:54:55;9.48;;;5.55;;
63434;SDS011;68814;50.872;5.306;2023-06-05T04:57:22;7.32;;;5.50;;
63434;SDS011;68814;50.872;5.306;2023-06-05T04:59:49;11.40;;;5.32;;
63434;SDS011;68814;50.872;5.306;2023-06-05T05:02:16;9.82;;;5.20;;
63434;SDS011;68814;50.872;5.306;2023-06-05T05:04:41;8.65;;;6.07;;
63434;SDS011;68814;50.872;5.306;2023-06-05T05:07:07;12.23;;;6.25;;
63434;SDS011;68814;50.872;5.306;2023-06-05T05:09:38;8.13;;;6.30;;
63434;SDS011;68814;50.872;5.306;2023-06-05T05:12:04;9.25;;;5.53;;
63434;SDS011;68814;50.872;5.306;2023-06-05T05:14:29;11.02;;;5.88;;
63434;SDS011;68814;50.872;5.306;2023-06-05T05:16:55;11.05;;;6.32;;
63434;SDS011;68814;50.872;5.306;2023-06-05T05:19:21;10.23;;;6.22;;
63434;SDS011;68814;50.872;5.306;2023-06-05T05:21:49;10.43;;;5.90;;
63434;SDS011;68814;50.872;5.306;2023-06-05T05:24:15;11.63;;;6.10;;
63434;SDS011;68814;50.872;5.306;2023-06-05T05:26:41;10.82;;;6.25;;
63434;SDS011;68814;50.872;5.306;2023-06-05T05:29:07;12.07;;;6.50;;
63434;SDS011;68814;50.872;5.306;2023-06-05T05:31:33;10.82;;;5.97;;
63434;SDS011;68814;50.872;5.306;2023-06-05T05:33:59;9.85;;;5.85;;
63434;SDS011;68814;50.872;5.306;2023-06-05T05:36:25;9.35;;;5.70;;
63434;SDS011;68814;50.872;5.306;2023-06-05T05:38:51;10.90;;;6.78;;
63434;SDS011;68814;50.872;5.306;2023-06-05T05:41:17;9.63;;;5.82;;
63434;SDS011;68814;50.872;5.306;2023-06-05T05:43:43;9.25;;;5.72;;
63434;SDS011;68814;50.872;5.306;2023-06-05T05:46:09;9.80;;;5.82;;
63434;SDS011;68814;50.872;5.306;2023-06-05T05:48:36;9.63;;;6.60;;
63434;SDS011;68814;50.872;5.306;2023-06-05T05:51:03;11.82;;;6.25;;
63434;SDS011;68814;50.872;5.306;2023-06-05T05:53:30;11.82;;;6.60;;
63434;SDS011;68814;50.872;5.306;2023-06-05T05:55:56;11.32;;;6.30;;
63434;SDS011;68814;50.872;5.306;2023-06-05T06:00:59;11.52;;;6.18;;
63434;SDS011;68814;50.872;5.306;2023-06-05T06:03:27;9.77;;;6.20;;
63434;SDS011;68814;50.872;5.306;2023-06-05T06:05:52;10.02;;;6.85;;
63434;SDS011;68814;50.872;5.306;2023-06-05T06:08:18;14.10;;;6.15;;
63434;SDS011;68814;50.872;5.306;2023-06-05T06:10:45;9.82;;;6.13;;
63434;SDS011;68814;50.872;5.306;2023-06-05T06:13:11;12.00;;;7.00;;
63434;SDS011;68814;50.872;5.306;2023-06-05T06:15:37;17.20;;;6.65;;
63434;SDS011;68814;50.872;5.306;2023-06-05T06:18:04;10.70;;;6.75;;
63434;SDS011;68814;50.872;5.306;2023-06-05T06:20:30;11.35;;;6.75;;
63434;SDS011;68814;50.872;5.306;2023-06-05T06:22:56;12.57;;;6.30;;
63434;SDS011;68814;50.872;5.306;2023-06-05T06:27:48;16.38;;;7.18;;
63434;SDS011;68814;50.872;5.306;2023-06-05T06:30:15;11.18;;;6.85;;
63434;SDS011;68814;50.872;5.306;2023-06-05T06:32:40;9.77;;;6.43;;
63434;SDS011;68814;50.872;5.306;2023-06-05T06:35:06;11.40;;;5.90;;
63434;SDS011;68814;50.872;5.306;2023-06-05T06:37:32;10.82;;;6.32;;
63434;SDS011;68814;50.872;5.306;2023-06-05T06:39:58;14.98;;;6.40;;
63434;SDS011;68814;50.872;5.306;2023-06-05T06:42:24;11.23;;;6.30;;
63434;SDS011;68814;50.872;5.306;2023-06-05T06:44:51;9.35;;;6.32;;
63434;SDS011;68814;50.872;5.306;2023-06-05T06:47:21;12.05;;;6.40;;
63434;SDS011;68814;50.872;5.306;2023-06-05T06:49:47;12.57;;;6.03;;
63434;SDS011;68814;50.872;5.306;2023-06-05T06:52:12;12.10;;;6.30;;
63434;SDS011;68814;50.872;5.306;2023-06-05T06:54:38;11.52;;;6.60;;
63434;SDS011;68814;50.872;5.306;2023-06-05T06:57:04;14.15;;;6.47;;
63434;SDS011;68814;50.872;5.306;2023-06-05T06:59:30;11.65;;;6.38;;
63434;SDS011;68814;50.872;5.306;2023-06-05T07:02:08;8.52;;;6.15;;
63434;SDS011;68814;50.872;5.306;2023-06-05T07:04:36;13.95;;;6.07;;
63434;SDS011;68814;50.872;5.306;2023-06-05T07:07:02;10.15;;;5.80;;
63434;SDS011;68814;50.872;5.306;2023-06-05T07:09:28;15.20;;;5.97;;
63434;SDS011;68814;50.872;5.306;2023-06-05T07:11:54;10.68;;;5.75;;
63434;SDS011;68814;50.872;5.306;2023-06-05T07:14:20;9.63;;;5.90;;
63434;SDS011;68814;50.872;5.306;2023-06-05T07:16:47;9.35;;;5.50;;
63434;SDS011;68814;50.872;5.306;2023-06-05T07:19:13;12.38;;;6.70;;
63434;SDS011;68814;50.872;5.306;2023-06-05T07:21:40;5.45;;;4.40;;
63434;SDS011;68814;50.872;5.306;2023-06-05T07:24:06;8.18;;;4.80;;
63434;SDS011;68814;50.872;5.306;2023-06-05T07:26:33;10.70;;;5.18;;
63434;SDS011;68814;50.872;5.306;2023-06-05T07:28:58;9.73;;;5.30;;
63434;SDS011;68814;50.872;5.306;2023-06-05T07:31:24;9.07;;;5.22;;
63434;SDS011;68814;50.872;5.306;2023-06-05T07:33:51;8.88;;;5.68;;
63434;SDS011;68814;50.872;5.306;2023-06-05T07:36:17;8.10;;;5.35;;
63434;SDS011;68814;50.872;5.306;2023-06-05T07:38:42;9.40;;;5.70;;
63434;SDS011;68814;50.872;5.306;2023-06-05T07:41:08;9.23;;;5.38;;
63434;SDS011;68814;50.872;5.306;2023-06-05T07:43:36;10.82;;;5.82;;
63434;SDS011;68814;50.872;5.306;2023-06-05T07:46:05;9.00;;;4.88;;
63434;SDS011;68814;50.872;5.306;2023-06-05T07:48:31;13.45;;;5.35;;
63434;SDS011;68814;50.872;5.306;2023-06-05T07:50:56;9.35;;;5.28;;
63434;SDS011;68814;50.872;5.306;2023-06-05T07:53:22;8.07;;;5.85;;
63434;SDS011;68814;50.872;5.306;2023-06-05T07:55:48;9.05;;;5.72;;
63434;SDS011;68814;50.872;5.306;2023-06-05T07:58:13;17.40;;;6.15;;
63434;SDS011;68814;50.872;5.306;2023-06-05T08:00:42;10.65;;;5.63;;
63434;SDS011;68814;50.872;5.306;2023-06-05T08:03:08;8.45;;;5.38;;
63434;SDS011;68814;50.872;5.306;2023-06-05T08:05:35;10.93;;;5.15;;
63434;SDS011;68814;50.872;5.306;2023-06-05T08:08:01;9.02;;;5.35;;
63434;SDS011;68814;50.872;5.306;2023-06-05T08:10:27;9.90;;;5.43;;
63434;SDS011;68814;50.872;5.306;2023-06-05T08:12:53;11.93;;;5.50;;
63434;SDS011;68814;50.872;5.306;2023-06-05T08:15:18;6.75;;;5.38;;
63434;SDS011;68814;50.872;5.306;2023-06-05T08:17:44;8.45;;;5.90;;
63434;SDS011;68814;50.872;5.306;2023-06-05T08:20:10;12.57;;;5.32;;
63434;SDS011;68814;50.872;5.306;2023-06-05T08:22:36;8.85;;;5.20;;
63434;SDS011;68814;50.872;5.306;2023-06-05T08:25:05;12.75;;;5.65;;
63434;SDS011;68814;50.872;5.306;2023-06-05T08:27:32;36.25;;;6.20;;
63434;SDS011;68814;50.872;5.306;2023-06-05T08:29:57;10.10;;;5.10;;
63434;SDS011;68814;50.872;5.306;2023-06-05T08:32:24;10.15;;;5.65;;
63434;SDS011;68814;50.872;5.306;2023-06-05T08:34:50;10.02;;;5.07;;
63434;SDS011;68814;50.872;5.306;2023-06-05T08:37:16;5.60;;;3.95;;
63434;SDS011;68814;50.872;5.306;2023-06-05T08:39:41;10.30;;;5.55;;
63434;SDS011;68814;50.872;5.306;2023-06-05T08:42:07;8.48;;;5.78;;
63434;SDS011;68814;50.872;5.306;2023-06-05T08:44:35;7.10;;;4.78;;
63434;SDS011;68814;50.872;5.306;2023-06-05T08:47:02;10.02;;;5.20;;
63434;SDS011;68814;50.872;5.306;2023-06-05T08:49:28;9.68;;;4.65;;
63434;SDS011;68814;50.872;5.306;2023-06-05T08:51:56;9.90;;;5.13;;
63434;SDS011;68814;50.872;5.306;2023-06-05T08:54:35;11.10;;;4.97;;
63434;SDS011;68814;50.872;5.306;2023-06-05T08:57:06;7.70;;;4.68;;
63434;SDS011;68814;50.872;5.306;2023-06-05T08:59:32;9.30;;;5.22;;
63434;SDS011;68814;50.872;5.306;2023-06-05T09:01:59;8.18;;;4.80;;
63434;SDS011;68814;50.872;5.306;2023-06-05T09:04:25;13.45;;;4.47;;
63434;SDS011;68814;50.872;5.306;2023-06-05T09:06:55;10.65;;;4.18;;
63434;SDS011;68814;50.872;5.306;2023-06-05T09:09:27;10.75;;;5.07;;
63434;SDS011;68814;50.872;5.306;2023-06-05T09:12:05;7.63;;;4.32;;
63434;SDS011;68814;50.872;5.306;2023-06-05T09:14:33;9.77;;;5.30;;
63434;SDS011;68814;50.872;5.306;2023-06-05T09:17:00;6.78;;;5.03;;
63434;SDS011;68814;50.872;5.306;2023-06-05T09:19:37;10.10;;;6.13;;
63434;SDS011;68814;50.872;5.306;2023-06-05T09:22:05;6.65;;;4.72;;
63434;SDS011;68814;50.872;5.306;2023-06-05T09:24:31;8.25;;;4.97;;
63434;SDS011;68814;50.872;5.306;2023-06-05T09:26:58;10.23;;;4.03;;
63434;SDS011;68814;50.872;5.306;2023-06-05T09:29:29;6.38;;;3.95;;
63434;SDS011;68814;50.872;5.306;2023-06-05T09:31:56;8.60;;;4.80;;
63434;SDS011;68814;50.872;5.306;2023-06-05T09:34:24;10.70;;;5.38;;
63434;SDS011;68814;50.872;5.306;2023-06-05T09:36:52;7.57;;;3.78;;
63434;SDS011;68814;50.872;5.306;2023-06-05T09:39:20;8.20;;;4.60;;
63434;SDS011;68814;50.872;5.306;2023-06-05T09:41:46;7.05;;;4.07;;
63434;SDS011;68814;50.872;5.306;2023-06-05T09:44:14;6.45;;;3.40;;
63434;SDS011;68814;50.872;5.306;2023-06-05T09:52:08;6.65;;;4.07;;
63434;SDS011;68814;50.872;5.306;2023-06-05T09:54:42;6.90;;;4.32;;
63434;SDS011;68814;50.872;5.306;2023-06-05T09:57:13;10.40;;;4.38;;
63434;SDS011;68814;50.872;5.306;2023-06-05T09:59:52;9.20;;;3.25;;
63434;SDS011;68814;50.872;5.306;2023-06-05T10:02:20;10.70;;;3.95;;
63434;SDS011;68814;50.872;5.306;2023-06-05T10:04:49;6.05;;;4.55;;
63434;SDS011;68814;50.872;5.306;2023-06-05T10:07:18;8.80;;;4.50;;
63434;SDS011;68814;50.872;5.306;2023-06-05T10:09:44;5.28;;;4.18;;
63434;SDS011;68814;50.872;5.306;2023-06-05T10:12:15;11.38;;;4.85;;
63434;SDS011;68814;50.872;5.306;2023-06-05T10:14:41;9.93;;;4.20;;
63434;SDS011;68814;50.872;5.306;2023-06-05T10:17:08;7.50;;;3.35;;
63434;SDS011;68814;50.872;5.306;2023-06-05T10:19:35;11.07;;;4.10;;
63434;SDS011;68814;50.872;5.306;2023-06-05T10:22:02;4.13;;;3.15;;
63434;SDS011;68814;50.872;5.306;2023-06-05T10:24:31;7.55;;;3.83;;
63434;SDS011;68814;50.872;5.306;2023-06-05T10:32:16;3.90;;;3.00;;
63434;SDS011;68814;50.872;5.306;2023-06-05T10:38:20;4.47;;;2.70;;
63434;SDS011;68814;50.872;5.306;2023-06-05T10:41:00;4.05;;;2.33;;
63434;SDS011;68814;50.872;5.306;2023-06-05T10:43:32;5.68;;;2.90;;
63434;SDS011;68814;50.872;5.306;2023-06-05T10:54:08;3.92;;;3.03;;
63434;SDS011;68814;50.872;5.306;2023-06-05T10:59:28;4.35;;;2.40;;
63434;SDS011;68814;50.872;5.306;2023-06-05T11:07:27;5.85;;;2.17;;
63434;SDS011;68814;50.872;5.306;2023-06-05T11:15:04;3.33;;;1.98;;
63434;SDS011;68814;50.872;5.306;2023-06-05T11:17:48;5.60;;;2.35;;
63434;SDS011;68814;50.872;5.306;2023-06-05T11:23:09;3.92;;;1.92;;
63434;SDS011;68814;50.872;5.306;2023-06-05T11:25:34;6.63;;;1.40;;
63434;SDS011;68814;50.872;5.306;2023-06-05T11:30:34;3.20;;;1.63;;
63434;SDS011;68814;50.872;5.306;2023-06-05T11:33:13;3.10;;;1.60;;
63434;SDS011;68814;50.872;5.306;2023-06-05T11:35:45;3.78;;;1.40;;
63434;SDS011;68814;50.872;5.306;2023-06-05T11:40:41;3.30;;;1.48;;
63434;SDS011;68814;50.872;5.306;2023-06-05T11:43:08;3.92;;;2.10;;
63434;SDS011;68814;50.872;5.306;2023-06-05T11:45:37;2.78;;;1.50;;
63434;SDS011;68814;50.872;5.306;2023-06-05T11:48:07;9.13;;;1.50;;
63434;SDS011;68814;50.872;5.306;2023-06-05T11:50:38;2.22;;;1.10;;
63434;SDS011;68814;50.872;5.306;2023-06-05T11:53:08;4.80;;;1.30;;
63434;SDS011;68814;50.872;5.306;2023-06-05T11:55:35;2.67;;;1.60;;
63434;SDS011;68814;50.872;5.306;2023-06-05T11:58:31;2.90;;;1.30;;
63434;SDS011;68814;50.872;5.306;2023-06-05T12:03:42;3.63;;;1.40;;
63434;SDS011;68814;50.872;5.306;2023-06-05T12:06:10;5.55;;;2.10;;
63434;SDS011;68814;50.872;5.306;2023-06-05T12:08:39;3.50;;;1.80;;
63434;SDS011;68814;50.872;5.306;2023-06-05T12:11:21;2.10;;;1.58;;
63434;SDS011;68814;50.872;5.306;2023-06-05T12:13:55;3.30;;;2.13;;
63434;SDS011;68814;50.872;5.306;2023-06-05T12:16:31;4.78;;;1.65;;
63434;SDS011;68814;50.872;5.306;2023-06-05T12:19:10;3.15;;;1.60;;
63434;SDS011;68814;50.872;5.306;2023-06-05T12:21:37;2.35;;;1.08;;
63434;SDS011;68814;50.872;5.306;2023-06-05T12:24:03;5.07;;;1.35;;
63434;SDS011;68814;50.872;5.306;2023-06-05T12:26:30;4.50;;;1.50;;
63434;SDS011;68814;50.872;5.306;2023-06-05T12:29:12;2.80;;;1.55;;
63434;SDS011;68814;50.872;5.306;2023-06-05T12:31:38;8.20;;;1.50;;
63434;SDS011;68814;50.872;5.306;2023-06-05T12:34:04;5.35;;;1.38;;
63434;SDS011;68814;50.872;5.306;2023-06-05T12:36:31;1.35;;;1.13;;
63434;SDS011;68814;50.872;5.306;2023-06-05T12:39:03;5.05;;;1.27;;
63434;SDS011;68814;50.872;5.306;2023-06-05T12:41:30;3.42;;;1.08;;
63434;SDS011;68814;50.872;5.306;2023-06-05T12:44:00;3.65;;;1.42;;
63434;SDS011;68814;50.872;5.306;2023-06-05T12:46:27;2.38;;;1.00;;
63434;SDS011;68814;50.872;5.306;2023-06-05T12:48:53;2.67;;;1.20;;
63434;SDS011;68814;50.872;5.306;2023-06-05T12:51:19;3.38;;;1.13;;
63434;SDS011;68814;50.872;5.306;2023-06-05T12:53:45;3.22;;;1.30;;
63434;SDS011;68814;50.872;5.306;2023-06-05T12:56:11;5.22;;;1.23;;
63434;SDS011;68814;50.872;5.306;2023-06-05T12:58:36;1.75;;;1.13;;
63434;SDS011;68814;50.872;5.306;2023-06-05T13:01:02;2.63;;;1.13;;
63434;SDS011;68814;50.872;5.306;2023-06-05T13:03:28;2.30;;;1.42;;
63434;SDS011;68814;50.872;5.306;2023-06-05T13:05:54;2.65;;;1.00;;
63434;SDS011;68814;50.872;5.306;2023-06-05T13:08:20;3.22;;;1.27;;
63434;SDS011;68814;50.872;5.306;2023-06-05T13:10:45;3.60;;;1.10;;
63434;SDS011;68814;50.872;5.306;2023-06-05T13:13:11;4.20;;;1.50;;
63434;SDS011;68814;50.872;5.306;2023-06-05T13:15:36;3.90;;;1.10;;
63434;SDS011;68814;50.872;5.306;2023-06-05T13:18:02;3.47;;;1.27;;
63434;SDS011;68814;50.872;5.306;2023-06-05T13:20:28;2.40;;;1.00;;
63434;SDS011;68814;50.872;5.306;2023-06-05T13:22:53;2.03;;;1.30;;
63434;SDS011;68814;50.872;5.306;2023-06-05T13:25:19;5.72;;;1.10;;
63434;SDS011;68814;50.872;5.306;2023-06-05T13:27:45;3.70;;;1.40;;
63434;SDS011;68814;50.872;5.306;2023-06-05T13:30:10;1.50;;;1.10;;
63434;SDS011;68814;50.872;5.306;2023-06-05T13:32:37;3.00;;;1.35;;
63434;SDS011;68814;50.872;5.306;2023-06-05T13:35:06;2.78;;;1.63;;
63434;SDS011;68814;50.872;5.306;2023-06-05T13:37:33;8.02;;;1.30;;
63434;SDS011;68814;50.872;5.306;2023-06-05T13:39:59;1.90;;;1.20;;
63434;SDS011;68814;50.872;5.306;2023-06-05T13:42:25;2.92;;;1.10;;
63434;SDS011;68814;50.872;5.306;2023-06-05T13:44:50;4.03;;;0.95;;
63434;SDS011;68814;50.872;5.306;2023-06-05T13:47:16;2.17;;;1.20;;
63434;SDS011;68814;50.872;5.306;2023-06-05T13:49:42;4.70;;;1.30;;
63434;SDS011;68814;50.872;5.306;2023-06-05T13:52:08;4.68;;;1.30;;
63434;SDS011;68814;50.872;5.306;2023-06-05T13:54:34;4.45;;;1.50;;
63434;SDS011;68814;50.872;5.306;2023-06-05T13:57:00;1.17;;;1.08;;
63434;SDS011;68814;50.872;5.306;2023-06-05T13:59:26;2.17;;;1.50;;
63434;SDS011;68814;50.872;5.306;2023-06-05T14:01:51;4.47;;;1.55;;
63434;SDS011;68814;50.872;5.306;2023-06-05T14:04:18;4.72;;;1.40;;
63434;SDS011;68814;50.872;5.306;2023-06-05T14:06:45;2.22;;;1.20;;
63434;SDS011;68814;50.872;5.306;2023-06-05T14:09:11;2.15;;;1.10;;
63434;SDS011;68814;50.872;5.306;2023-06-05T14:11:37;1.60;;;0.98;;
63434;SDS011;68814;50.872;5.306;2023-06-05T14:14:09;2.72;;;1.00;;
63434;SDS011;68814;50.872;5.306;2023-06-05T14:16:36;5.22;;;1.40;;
63434;SDS011;68814;50.872;5.306;2023-06-05T14:19:04;9.57;;;1.48;;
63434;SDS011;68814;50.872;5.306;2023-06-05T14:21:30;3.30;;;1.40;;
63434;SDS011;68814;50.872;5.306;2023-06-05T14:23:55;2.70;;;1.23;;
63434;SDS011;68814;50.872;5.306;2023-06-05T14:26:21;3.28;;;1.45;;
63434;SDS011;68814;50.872;5.306;2023-06-05T14:28:47;3.95;;;1.05;;
63434;SDS011;68814;50.872;5.306;2023-06-05T14:31:13;2.35;;;1.20;;
63434;SDS011;68814;50.872;5.306;2023-06-05T14:33:39;4.07;;;1.20;;
63434;SDS011;68814;50.872;5.306;2023-06-05T14:36:05;3.45;;;1.45;;
63434;SDS011;68814;50.872;5.306;2023-06-05T14:38:31;4.15;;;1.67;;
63434;SDS011;68814;50.872;5.306;2023-06-05T14:40:56;3.15;;;1.20;;
63434;SDS011;68814;50.872;5.306;2023-06-05T14:43:23;2.88;;;1.58;;
63434;SDS011;68814;50.872;5.306;2023-06-05T14:45:51;3.05;;;1.40;;
63434;SDS011;68814;50.872;5.306;2023-06-05T14:48:16;3.00;;;1.42;;
63434;SDS011;68814;50.872;5.306;2023-06-05T14:50:42;5.90;;;1.23;;
63434;SDS011;68814;50.872;5.306;2023-06-05T14:53:08;4.63;;;1.25;;
63434;SDS011;68814;50.872;5.306;2023-06-05T14:55:33;3.75;;;1.27;;
63434;SDS011;68814;50.872;5.306;2023-06-05T14:57:59;1.92;;;1.08;;
63434;SDS011;68814;50.872;5.306;2023-06-05T15:00:24;6.03;;;1.30;;
63434;SDS011;68814;50.872;5.306;2023-06-05T15:02:50;2.92;;;1.40;;
63434;SDS011;68814;50.872;5.306;2023-06-05T15:05:16;2.15;;;1.10;;
63434;SDS011;68814;50.872;5.306;2023-06-05T15:07:41;2.95;;;1.20;;
63434;SDS011;68814;50.872;5.306;2023-06-05T15:10:08;1.60;;;1.15;;
63434;SDS011;68814;50.872;5.306;2023-06-05T15:12:37;3.30;;;1.20;;
63434;SDS011;68814;50.872;5.306;2023-06-05T15:15:03;1.92;;;1.13;;
63434;SDS011;68814;50.872;5.306;2023-06-05T15:17:31;7.93;;;1.20;;
63434;SDS011;68814;50.872;5.306;2023-06-05T15:19:56;2.78;;;0.95;;
63434;SDS011;68814;50.872;5.306;2023-06-05T15:22:22;2.28;;;1.08;;
63434;SDS011;68814;50.872;5.306;2023-06-05T15:24:48;2.67;;;1.33;;
63434;SDS011;68814;50.872;5.306;2023-06-05T15:27:13;3.33;;;1.17;;
63434;SDS011;68814;50.872;5.306;2023-06-05T15:29:39;3.15;;;1.10;;
63434;SDS011;68814;50.872;5.306;2023-06-05T15:32:05;5.88;;;1.40;;
63434;SDS011;68814;50.872;5.306;2023-06-05T15:34:31;4.47;;;1.10;;
63434;SDS011;68814;50.872;5.306;2023-06-05T15:36:56;2.30;;;1.20;;
63434;SDS011;68814;50.872;5.306;2023-06-05T15:39:22;3.95;;;1.20;;
63434;SDS011;68814;50.872;5.306;2023-06-05T15:41:47;2.72;;;1.38;;
63434;SDS011;68814;50.872;5.306;2023-06-05T15:44:14;2.47;;;1.17;;